Adjuster:

Genres

Foreign Language

1980-Present
Only overseas-produced features counted. Re-issues excluded.

Rows: #1-100, #101-200, #201-300, #301-400, #401-500, #501-600, #601-700, #701-800, #801-900, #901-1000, #1001-1100, #1101-1200, #1201-1300, #1301-1400, #1401-1500, #1501-1600, #1601-1700, #1701-1800, #1801-1900, #1901-2000, #2001-2100, #2101-2132
RowRankTitle (click to view)StudioLifetime Gross / TheatersOpening / TheatersDate
1 1714 Saheb Biwi Aur Gangster UTV $14,231 9 $9,548 9 9/30/11
2 1731 Benda Bilili! NGE $13,420 3 $1,678 1 9/30/11
3 1890 My Joy KL $6,298 1 $2,077 1 9/30/11
4 - Force FoxS n/a 58 n/a 58 9/30/11
5 518 Mausam Eros $728,316 96 $459,024 96 9/23/11
6 1790 Marriage, Italian Style (2011 re-release) KC $10,600 1 $4,967 1 9/23/11
7 552 My Afternoons with Margueritte Cohen $666,557 41 $20,900 2 9/16/11
8 1433 Happy, Happy Magn. $45,154 7 $7,125 4 9/16/11
9 2024 Romeos Strand $1,081 1 $773 1 9/16/11
10 648 Mere Brother Ki Dulhan Yash $496,172 74 $403,017 74 9/9/11
11 1293 Shaolin Vari. $66,099 11 $19,132 9 9/9/11
12 1488 My Kingdom (2011) CL $36,533 20 $16,816 20 9/9/11
13 1502 Love in Space CL $34,787 16 $13,795 16 9/9/11
14 1510 The Autobiography of Nicolae Ceausescu FDesk $34,023 3 $4,644 1 9/9/11
15 315 Saving Private Perez LGF $1,400,726 165 $664,517 161 9/2/11
16 622 Love Crime IFC $539,792 29 $35,375 5 9/2/11
17 677 Detective Dee and the Mystery of the Phantom Flame IM $459,836 48 $52,617 3 9/2/11
18 1843 I'm Glad My Mother is Alive Strand $8,705 1 $3,118 1 9/2/11
19 2018 Little Girl (La Pivellina) FRun $1,350 1 $526 1 9/2/11
20 248 Bodyguard Relbig. $1,834,384 88 $863,751 88 8/31/11
21 885 Gainsbourg: A Heroic Life MBox $233,007 19 $25,189 3 8/31/11
22 952 Bol Eros $188,850 38 $62,473 38 8/31/11
23 1839 Special Treatment FRun $8,856 1 $678 1 8/26/11
24 528 The Hedgehog NeoC $707,945 40 $39,276 6 8/19/11
25 529 Mozart's Sister MBox $707,885 36 $34,046 7 8/19/11
26 1458 The Last Circus Magn. $40,548 6 $4,757 1 8/19/11
27 561 Aarakshan (Reservation) Relbig. $651,096 91 $344,661 91 8/12/11
28 1019 Sex and Zen 3D: Extreme Ecstasy CL $153,215 10 $903 1 8/12/11
29 1387 Over Your Cities Grass Will Grow AM $51,301 3 $7,272 1 8/10/11
30 1140 Mysteries of Lisbon MBox $110,507 6 $12,308 2 8/5/11
31 1977 Protektor FM $2,968 2 $2,968 2 8/5/11
32 527 Point Blank Magn. $708,215 37 $41,031 6 7/29/11
33 881 El Bulli: Cooking in Progress AM $237,181 10 $12,756 1 7/27/11
34 37 Sarah's Key Wein. $7,693,187 319 $115,708 5 7/22/11
35 747 Singham Relbig. $350,864 50 $161,063 50 7/22/11
36 1624 Four Adventures of Reinette and Mirabelle (2011 re-release) FDesk $22,039 1 $5,051 1 7/20/11
37 1779 The Woman with the Five Elephants CGld $11,026 1 $4,988 1 7/20/11
38 136 Zindagi Na Milegi Dobara Eros $3,108,485 100 $960,548 100 7/15/11
39 1072 Life, Above All SPC $134,461 18 $13,788 5 7/15/11
40 1317 Trigun: Badlands Rumble Elev. $62,027 12 $29,201 12 7/8/11
41 1333 Murder 2 Eros $59,472 26 n/a 26 7/8/11
42 1556 The Sleeping Beauty Strand $29,066 3 $5,973 1 7/8/11
43 1889 Chillar Party UTV $6,330 7 $4,155 7 7/8/11
44 1430 Rapt Lorb. $45,759 3 $5,872 1 7/6/11
45 289 Delhi Belly UTV $1,532,594 90 $581,943 89 7/1/11
46 1906 Aurora CGld $5,677 1 $2,105 1 6/29/11
47 617 Double Dhamaal Relbig. $543,646 54 $301,831 54 6/24/11
48 637 The Names of Love MBox $514,237 24 $30,372 5 6/24/11
49 1028 Beginning of the Great Revival CL $151,305 29 $65,866 29 6/24/11
50 1738 Leap Year (2011) Strand $12,979 2 $2,727 1 6/24/11
51 1633 Always Kabhi Kabhi Eros $21,381 29 $14,570 29 6/17/11
52 859 Trollhunter Magn. $253,444 21 $5,585 1 6/10/11
53 1319 Viva Riva! MBox $61,759 5 $10,314 3 6/10/11
54 1442 Le Rayon Vert (Summer) FDesk $43,839 2 $4,957 1 6/9/11
55 427 Ready Eros $955,148 97 $460,238 97 6/3/11
56 1514 Film Socialisme Lorb. $32,977 3 $4,526 1 6/3/11
57 - Empire of Silver NeoC n/a 17 n/a 17 6/2/11
58 1981 United Red Army Lorb. $2,659 1 $1,161 1 5/27/11
59 1567 Tuesday, After Christmas Lorb. $27,813 2 $6,472 1 5/25/11
60 1291 A Beautiful Life CL $66,171 23 $23,605 23 5/20/11
61 793 L'Amour Fou IFC $312,494 18 $37,250 2 5/13/11
62 1406 Love U Mr. Kalakaar Eros $48,557 13 n/a 13 5/13/11
63 1106 City of Life and Death Kino $122,558 9 $5,610 1 5/11/11
64 1298 Battle of the Brides (Co Dau Dai Chien) Vari. $64,572 6 $23,612 5 5/6/11
65 1521 Octubre NYer $32,127 2 $7,054 2 5/6/11
66 1941 Caterpillar Lorb. $4,157 1 $2,109 1 5/6/11
67 - Haunted 3D Relbig. n/a 13 n/a 13 5/6/11
68 482 13 Assassins Magn. $802,778 31 $45,854 4 4/29/11
69 1194 Chalo Dilli Eros $94,300 31 $38,268 31 4/29/11
70 219 Incendies (U.S. only) SPC $2,071,334 90 $50,679 3 4/22/11
71 605 Dum Maaro Dum FoxS $564,489 101 $327,523 101 4/22/11
72 1283 The Warring States CL $68,961 23 $35,381 23 4/22/11
73 1390 Legend of the Fist: The Return of Chen Zhen Vari. $50,433 9 $11,365 4 4/22/11
74 291 The Double Hour Gold. $1,514,942 68 $30,246 2 4/15/11
75 744 The Princess of Montpensier IFC $352,428 21 $23,456 3 4/15/11
76 1707 Armadillo Lorb. $14,566 1 $3,958 1 4/15/11
77 1812 A Screaming Man FM $9,862 1 $2,421 1 4/13/11
78 324 No Eres Tu, Soy Yo LGF $1,339,911 226 $588,938 226 4/8/11
79 674 Thank You (2011) UTV $463,540 92 $244,183 92 4/8/11
80 1944 To Die Like a Man Strand $4,029 1 $2,346 1 4/8/11
81 417 In a Better World SPC $1,008,098 51 $33,058 4 4/1/11
82 659 Queen to Play Zeit. $478,710 18 $28,092 6 4/1/11
83 1060 Game (2011) Eros $139,528 63 $83,783 63 4/1/11
84 1021 Le Quattro Volte Lorb. $152,530 6 $16,192 1 3/30/11
85 277 Potiche MBox $1,618,844 74 $86,017 7 3/25/11
86 1852 Korkoro Lorb. $8,242 2 $1,224 1 3/25/11
87 873 My Perestroika ICir $242,707 19 $17,680 1 3/23/11
88 619 Winter in Wartime SPC $543,100 26 $14,937 3 3/18/11
89 1413 The Butcher, the Chef and the Swordsman CL $47,896 37 $23,425 37 3/18/11
90 319 Certified Copy IFC $1,373,975 57 $77,937 5 3/11/11
91 1574 Clash (Bay Rong) Vari. $27,052 9 $12,249 9 3/11/11
92 1084 I Saw the Devil Magn. $129,210 15 $13,567 2 3/4/11
93 1304 The Human Resources Manager FM $64,014 9 $8,528 3 3/4/11
94 958 Uncle Boonmee Who Can Recall His Past Lives Strand $184,292 6 $23,540 3 3/2/11
95 104 Of Gods and Men SPC $3,954,651 120 $308,895 33 2/25/11
96 1285 Heartbeats IFC $68,723 10 $7,197 1 2/25/11
97 1419 Diary of a Country Priest (2011 re-release) Rialto $46,979 2 $7,674 1 2/25/11
98 634 Even the Rain
(Spain)
Vita. $518,017 27 $53,730 8 2/18/11
99 846 7 Khoon Maaf UTV $270,207 68 $164,153 65 2/18/11
100 1796 Zero Bridge FDesk $10,357 2 $3,304 1 2/16/11
TOTAL (All Movies):$2,047,906,323----
AVERAGE (All Movies):$997,51947$140,12827-
TOTAL
(Wide Releases Only):
$453,702,545----
AVERAGE
(Wide Releases Only):
$25,205,6971,275$8,308,2201,585-
Rows: #1-100, #101-200, #201-300, #301-400, #401-500, #501-600, #601-700, #701-800, #801-900, #901-1000, #1001-1100, #1101-1200, #1201-1300, #1301-1400, #1401-1500, #1501-1600, #1601-1700, #1701-1800, #1801-1900, #1901-2000, #2001-2100, #2101-2132


If there are any movies that you think should be on this list, e-mail us at mail@boxofficemojo.com.




UPCOMING RELEASES
Title (click to view)StudioRelease Date
C'Est Si Bon CJ 2/13/15
The King's Choice Gold. 9/22/17
Judwaa 2 FIP 9/29/17
Youth (2017) CL 9/29/17
Chasing the Dragon WGUSA 9/29/17
Signature Move Newcity 9/29/17
Chavela MBox 10/4/17
City of Rock WGUSA 10/6/17
Paradise (2017) FM 10/6/17
BPM (Beats Per Minute) Orch. 10/20/17
In Between FM 11/10/17
Johanna
(Hungary)
Tar. TBD
Abel LGF TBD
When a Wolf Falls in Love with a Sheep N/A TBD
Jolly LLB FIP TBD
Happy New Year (2014) N/A TBD
Suite Francaise Wein. TBD
Theri (The Spark) N/A TBD
24 (2016) Eros TBD
The Girl with All the Gifts Saban TBD
Pitbull. Niebezpieczne kobiety N/A TBD
The Jungle Bunch N/A TBD